Time;durP1;ratioP1;P1;durP2;ratioP2;P2;SDS_P1;SDS_P2;PMS_P1;PMS_P2;Temp;Humidity;BMP_temperature;BMP_pressure;BME280_temperature;BME280_humidity;BME280_pressure;Samples;Min_cycle;Max_cycle;Signal;HPM_P1;HPM_P2
2021/07/25 00:00:43;;;;;;;9.32;8.43;;;;;;;22.79;71.67;98869.38;5059854;28;20236;-90
2021/07/25 00:03:11;;;;;;;8.90;8.10;;;;;;;22.54;72.96;98864.59;5075610;28;20259;-84
2021/07/25 00:05:42;;;;;;;8.80;7.18;;;;;;;22.44;73.18;98879.38;5075955;28;20224;-90
2021/07/25 00:08:12;;;;;;;6.75;6.10;;;;;;;22.39;73.08;98890.41;5059440;28;20239;-89
2021/07/25 00:10:44;;;;;;;8.80;6.25;;;;;;;22.27;73.46;98876.53;5060074;28;20284;-89
2021/07/25 00:13:11;;;;;;;6.20;5.60;;;;;;;22.21;73.45;98886.78;5059887;28;20278;-87
2021/07/25 00:15:38;;;;;;;6.97;5.23;;;;;;;22.03;74.25;98887.81;5058983;28;20317;-88
2021/07/25 00:18:06;;;;;;;5.30;4.80;;;;;;;21.97;74.62;98896.47;5059256;28;20283;-89
2021/07/25 00:20:33;;;;;;;8.10;5.05;;;;;;;21.89;75.76;98882.41;5075778;28;20235;-90
2021/07/25 00:23:01;;;;;;;5.70;4.73;;;;;;;21.84;75.17;98877.09;5076023;28;20673;-89
2021/07/25 00:25:28;;;;;;;8.27;5.63;;;;;;;21.87;76.09;98881.94;5058857;28;20614;-89
2021/07/25 00:27:56;;;;;;;5.33;4.70;;;;;;;21.85;76.08;98883.34;5059230;28;20258;-91
2021/07/25 00:30:24;;;;;;;5.90;5.03;;;;;;;21.85;76.22;98883.34;5058647;28;20230;-90
2021/07/25 00:32:52;;;;;;;6.07;4.95;;;;;;;21.88;76.80;98891.69;5059310;28;20246;-89
2021/07/25 00:35:19;;;;;;;6.03;5.07;;;;;;;21.83;77.57;98888.31;5075492;28;20323;-85
2021/07/25 00:37:52;;;;;;;5.77;5.07;;;;;;;21.86;77.21;98893.94;5075466;28;20310;-90
2021/07/25 00:40:32;;;;;;;5.57;5.03;;;;;;;21.86;77.76;98904.06;5042332;28;20253;-91
2021/07/25 00:42:59;;;;;;;5.73;5.13;;;;;;;21.86;77.65;98907.59;5075518;28;20594;-90
2021/07/25 00:45:25;;;;;;;6.80;5.23;;;;;;;21.89;77.88;98920.59;5058338;28;20692;-90
2021/07/25 00:47:52;;;;;;;5.10;4.60;;;;;;;21.85;77.68;98908.69;5058520;28;20534;-89
2021/07/25 00:50:20;;;;;;;4.40;4.00;;;;;;;21.83;77.24;98910.94;5058136;28;20236;-86
2021/07/25 00:52:47;;;;;;;5.60;3.87;;;;;;;21.82;76.85;98916.69;5075275;28;20278;-86
2021/07/25 00:55:14;;;;;;;4.40;3.90;;;;;;;21.82;76.98;98920.22;5057767;28;20250;-89
2021/07/25 00:57:41;;;;;;;5.70;3.67;;;;;;;21.73;76.87;98905.72;5057554;28;20224;-85
2021/07/25 01:00:10;;;;;;;4.10;3.70;;;;;;;21.70;77.76;98897.34;5074093;28;20229;-90
2021/07/25 01:02:46;;;;;;;5.20;4.13;;;;;;;21.67;78.69;98901.50;5091033;28;20657;-87
2021/07/25 01:05:21;;;;;;;5.27;4.17;;;;;;;21.61;79.01;98891.84;5107951;28;20306;-89
2021/07/25 01:07:53;;;;;;;4.77;4.10;;;;;;;21.62;79.17;98895.38;5073913;28;20226;-88
2021/07/25 01:10:25;;;;;;;6.47;4.80;;;;;;;21.59;79.55;98899.53;5056926;28;20635;-89
2021/07/25 01:12:57;;;;;;;6.37;4.70;;;;;;;21.56;79.44;98900.13;5091828;28;20324;-90
2021/07/25 01:15:27;;;;;;;5.95;5.30;;;;;;;21.55;79.74;98903.19;5074189;28;20236;-91
2021/07/25 01:17:58;;;;;;;6.20;5.60;;;;;;;21.52;79.94;98889.06;5091503;28;20353;-85
2021/07/25 01:20:25;;;;;;;6.83;6.00;;;;;;;21.51;79.75;98901.06;5107901;28;20241;-87
2021/07/25 01:22:54;;;;;;;6.70;6.07;;;;;;;21.47;80.45;98901.97;5074597;28;20246;-90
2021/07/25 01:25:22;;;;;;;7.17;6.43;;;;;;;21.48;80.87;98914.50;5057457;28;20241;-89
2021/07/25 01:28:05;;;;;;;7.10;6.50;;;;;;;21.51;81.03;98913.88;5058161;28;20230;-89
2021/07/25 01:30:35;;;;;;;6.90;6.20;;;;;;;21.49;80.37;98910.66;5057593;28;20558;-90
2021/07/25 01:33:08;;;;;;;6.70;5.83;;;;;;;21.45;80.52;98907.75;5041855;28;20318;-90
2021/07/25 01:35:35;;;;;;;7.97;5.73;;;;;;;21.34;81.12;98898.19;5090795;28;20245;-91
2021/07/25 01:38:02;;;;;;;7.50;5.63;;;;;;;21.31;81.81;98887.94;5057428;28;20225;-89
2021/07/25 01:40:29;;;;;;;6.33;5.53;;;;;;;21.29;81.82;98892.88;5040908;28;20222;-90
2021/07/25 01:42:56;;;;;;;8.13;6.00;;;;;;;21.22;81.73;98886.25;5041311;28;20305;-90
2021/07/25 01:45:23;;;;;;;6.77;5.87;;;;;;;21.13;81.89;98890.78;5090685;28;20270;-90
2021/07/25 01:47:50;;;;;;;6.90;5.63;;;;;;;21.10;81.93;98916.69;5057600;28;20222;-90
2021/07/25 01:50:17;;;;;;;6.03;5.53;;;;;;;21.03;82.25;98911.66;5057050;28;20242;-90
2021/07/25 01:52:44;;;;;;;7.53;5.83;;;;;;;21.08;82.36;98917.00;5057726;28;20656;-86
2021/07/25 01:55:12;;;;;;;6.03;5.43;;;;;;;21.16;82.49;98925.59;5057468;28;20258;-90
2021/07/25 01:57:39;;;;;;;6.77;5.83;;;;;;;21.11;82.36;98904.69;5074004;28;20222;-89
2021/07/25 02:00:07;;;;;;;8.27;6.17;;;;;;;21.19;82.74;98911.34;5057097;28;20296;-89
2021/07/25 02:02:34;;;;;;;8.20;5.67;;;;;;;21.19;82.74;98909.44;5074287;28;20224;-91
2021/07/25 02:05:02;;;;;;;6.53;5.93;;;;;;;21.19;82.52;98895.81;5057205;28;20279;-91
2021/07/25 02:07:29;;;;;;;6.90;5.57;;;;;;;21.12;82.03;98878.25;5057219;28;20231;-87
2021/07/25 02:09:56;;;;;;;6.13;5.40;;;;;;;21.14;81.47;98876.06;5073915;28;20661;-89
2021/07/25 02:12:23;;;;;;;6.13;5.50;;;;;;;21.05;81.83;98865.84;5040509;28;20241;-86
2021/07/25 02:14:50;;;;;;;5.67;5.17;;;;;;;21.06;81.93;98870.19;5057330;28;20307;-89
2021/07/25 02:17:17;;;;;;;5.53;5.03;;;;;;;21.05;81.29;98868.56;5057394;28;20235;-90
2021/07/25 02:19:44;;;;;;;7.80;5.60;;;;;;;21.09;81.29;98877.75;5040506;28;20231;-86
2021/07/25 02:22:11;;;;;;;7.03;5.50;;;;;;;21.00;81.59;98878.78;5040318;28;20336;-88
2021/07/25 02:24:39;;;;;;;6.07;5.43;;;;;;;20.97;81.49;98879.41;5057103;28;20699;-88
2021/07/25 02:27:06;;;;;;;6.70;5.00;;;;;;;20.96;82.26;98878.59;5058413;28;20246;-89
2021/07/25 02:29:33;;;;;;;6.43;5.20;;;;;;;20.99;82.48;98886.16;5077925;28;20231;-90
2021/07/25 02:31:59;;;;;;;8.43;5.20;;;;;;;20.93;82.59;98881.13;5061322;28;20248;-91
2021/07/25 02:34:26;;;;;;;5.80;5.30;;;;;;;20.97;83.10;98880.22;5077520;28;20233;-89
2021/07/25 02:36:53;;;;;;;5.90;5.30;;;;;;;20.94;83.02;98878.09;5044411;28;20226;-87
2021/07/25 02:39:20;;;;;;;5.93;5.43;;;;;;;20.90;82.98;98868.13;5077638;28;20583;-88
2021/07/25 02:41:47;;;;;;;5.30;4.73;;;;;;;20.90;82.55;98870.84;5061201;28;20323;-88
2021/07/25 02:44:13;;;;;;;5.90;5.30;;;;;;;20.92;82.63;98893.13;5060483;28;20315;-89
2021/07/25 02:46:40;;;;;;;5.43;4.90;;;;;;;20.82;83.17;98888.69;5061041;28;20303;-88
2021/07/25 02:49:07;;;;;;;5.50;5.00;;;;;;;20.85;82.91;98900.91;5060292;28;20589;-88
2021/07/25 02:51:34;;;;;;;5.17;4.67;;;;;;;20.85;82.87;98907.16;5060881;28;20258;-89
2021/07/25 02:54:01;;;;;;;5.67;5.17;;;;;;;20.80;83.14;98907.25;5060183;28;20233;-86
2021/07/25 02:56:27;;;;;;;5.97;5.07;;;;;;;20.77;83.45;98916.00;5060556;28;20312;-88
2021/07/25 02:58:54;;;;;;;5.00;4.60;;;;;;;20.69;83.60;98905.03;5044248;28;20575;-90
2021/07/25 03:01:21;;;;;;;5.17;4.73;;;;;;;20.69;83.73;98911.28;5044061;28;20319;-90
2021/07/25 03:03:48;;;;;;;5.50;5.10;;;;;;;20.60;83.94;98910.38;5060897;28;20351;-87
2021/07/25 03:06:15;;;;;;;5.53;5.07;;;;;;;20.52;84.02;98913.81;5043511;28;20236;-88
2021/07/25 03:08:41;;;;;;;7.43;5.43;;;;;;;20.45;84.34;98918.84;5077411;28;20230;-88
2021/07/25 03:11:09;;;;;;;5.60;5.10;;;;;;;20.41;84.28;98925.97;5043755;28;20233;-88
2021/07/25 03:13:37;;;;;;;6.93;5.10;;;;;;;20.35;84.51;98913.56;5077404;28;20219;-89
2021/07/25 03:16:05;;;;;;;7.03;5.53;;;;;;;20.34;84.38;98915.50;5076096;28;20226;-88
2021/07/25 03:18:33;;;;;;;5.80;5.27;;;;;;;20.36;84.69;98928.78;5060444;28;20233;-89
2021/07/25 03:21:00;;;;;;;6.67;5.27;;;;;;;20.30;84.79;98927.22;5060100;28;20313;-89
2021/07/25 03:23:27;;;;;;;6.10;5.60;;;;;;;20.23;85.06;98930.38;5110463;28;20231;-90
2021/07/25 03:25:54;;;;;;;6.20;5.27;;;;;;;20.14;85.20;98932.97;5076595;28;20592;-90
2021/07/25 03:28:21;;;;;;;6.80;5.53;;;;;;;20.17;84.57;98931.56;5059881;28;20260;-88
2021/07/25 03:30:48;;;;;;;5.77;5.27;;;;;;;20.17;84.65;98945.16;5076426;28;20672;-87
2021/07/25 03:33:15;;;;;;;6.20;5.60;;;;;;;20.04;85.08;98935.84;5060431;28;20233;-89
2021/07/25 03:35:42;;;;;;;6.40;5.80;;;;;;;20.12;85.26;98940.59;5059969;28;20314;-87
2021/07/25 03:38:09;;;;;;;6.20;5.60;;;;;;;20.13;85.14;98958.53;5092646;28;20236;-88
2021/07/25 03:40:37;;;;;;;6.30;5.70;;;;;;;20.16;85.41;98951.69;5093126;28;20230;-87
2021/07/25 03:43:04;;;;;;;6.90;6.00;;;;;;;20.12;85.35;98932.44;5093260;28;20230;-89
2021/07/25 03:45:31;;;;;;;6.43;5.70;;;;;;;20.17;85.15;98935.09;5059716;28;20317;-89
2021/07/25 03:47:58;;;;;;;6.33;5.70;;;;;;;20.17;85.29;98929.63;5076589;28;20283;-89
2021/07/25 03:50:24;;;;;;;6.43;5.83;;;;;;;20.22;85.09;98937.72;5042897;28;20282;-91
2021/07/25 03:52:51;;;;;;;6.70;6.10;;;;;;;20.29;84.86;98929.19;5059787;28;20318;-90
2021/07/25 03:55:18;;;;;;;6.93;5.67;;;;;;;20.38;84.56;98935.56;5059459;28;20281;-90
2021/07/25 03:57:45;;;;;;;6.03;5.53;;;;;;;20.36;84.52;98934.25;5075554;28;20238;-90
2021/07/25 04:00:12;;;;;;;7.60;5.50;;;;;;;20.39;84.15;98931.72;5059063;28;20247;-89
2021/07/25 04:02:39;;;;;;;6.50;5.90;;;;;;;20.46;84.43;98948.47;5076000;28;20236;-87
2021/07/25 04:05:07;;;;;;;6.20;5.63;;;;;;;20.95;84.23;98952.44;5059317;28;20230;-88
2021/07/25 04:07:34;;;;;;;6.20;5.70;;;;;;;21.88;78.64;98973.50;5076977;28;20309;-88
2021/07/25 04:10:01;;;;;;;7.50;5.60;;;;;;;22.70;74.22;99000.41;5059407;28;20225;-87
2021/07/25 04:12:28;;;;;;;5.63;5.13;;;;;;;23.27;72.57;99019.59;5059152;28;20235;-90
2021/07/25 04:14:54;;;;;;;6.97;5.80;;;;;;;23.34;71.57;98981.66;5059310;28;20603;-87
2021/07/25 04:17:21;;;;;;;6.40;5.10;;;;;;;23.49;71.20;98996.84;5059438;28;20324;-89
2021/07/25 04:19:48;;;;;;;5.80;5.23;;;;;;;23.90;69.50;98980.75;5058813;28;20239;-89
2021/07/25 04:22:15;;;;;;;9.67;8.33;;;;;;;24.26;68.04;98977.72;5075455;28;20224;-87
2021/07/25 04:24:41;;;;;;;12.40;11.00;;;;;;;24.47;67.21;98964.94;5075863;28;20628;-86
2021/07/25 04:27:09;;;;;;;7.30;5.90;;;;;;;24.35;67.37;98969.47;5075569;28;20234;-88
2021/07/25 04:29:36;;;;;;;5.70;4.93;;;;;;;24.13;67.58;98970.44;5075290;28;20242;-89
2021/07/25 04:32:03;;;;;;;5.67;5.23;;;;;;;23.87;68.91;98981.41;5074990;28;20235;-87
2021/07/25 04:34:30;;;;;;;6.22;5.72;;;;;;;23.73;70.08;98980.78;5058909;28;20309;-84
2021/07/25 04:36:59;;;;;;;6.10;5.50;;;;;;;23.55;70.69;98981.91;5077338;28;20237;-89
2021/07/25 04:39:25;;;;;;;5.72;5.22;;;;;;;;;;5059074;28;20228;-89
2021/07/25 04:41:56;;;;;;;5.95;5.45;;;;;;;23.51;70.80;99000.88;5075672;28;20279;-88
2021/07/25 04:44:41;;;;;;;5.80;5.30;;;;;;;23.42;71.00;98991.81;5058950;28;20236;-83
2021/07/25 04:47:12;;;;;;;7.00;5.05;;;;;;;23.48;71.63;99001.50;5075442;28;20565;-89
2021/07/25 04:49:45;;;;;;;6.18;4.90;;;;;;;23.49;71.30;98991.38;5075144;28;20229;-88
2021/07/25 04:52:13;;;;;;;5.50;5.00;;;;;;;23.61;70.72;98989.59;5058776;28;20221;-87
2021/07/25 04:54:42;;;;;;;4.97;4.57;;;;;;;23.60;70.88;98970.81;5058960;28;20240;-87
2021/07/25 04:57:14;;;;;;;5.00;4.60;;;;;;;23.70;70.27;98971.28;5059000;28;20286;-88
2021/07/25 04:59:50;;;;;;;4.75;4.35;;;;;;;23.60;70.18;98966.16;5059177;28;20235;-88
2021/07/25 05:02:19;;;;;;;6.03;4.70;;;;;;;23.67;70.06;98971.13;5059136;28;20237;-89
2021/07/25 05:04:48;;;;;;;4.88;4.38;;;;;;;23.79;69.74;98979.50;5076251;28;20235;-89
2021/07/25 05:07:15;;;;;;;5.05;4.65;;;;;;;23.75;69.19;98972.25;5108922;28;20330;-86
2021/07/25 05:09:43;;;;;;;6.15;4.80;;;;;;;23.61;69.42;98961.44;5058858;28;20233;-85
2021/07/25 05:12:19;;;;;;;5.55;5.03;;;;;;;23.70;69.49;98968.53;5058511;28;20264;-89
2021/07/25 05:15:14;;;;;;;5.43;4.90;;;;;;;23.54;69.54;98963.88;5058984;28;20243;-88
2021/07/25 05:17:43;;;;;;;5.75;5.15;;;;;;;23.61;69.63;98967.72;5052028;28;20235;-88
2021/07/25 05:20:17;;;;;;;6.18;5.30;;;;;;;23.58;69.59;98968.38;5058343;28;20593;-86
2021/07/25 05:23:01;;;;;;;5.68;5.13;;;;;;;23.62;69.54;98963.06;5074535;28;20221;-88
2021/07/25 05:25:30;;;;;;;5.95;5.45;;;;;;;23.77;69.64;98970.00;5058543;28;20228;-86
2021/07/25 05:28:01;;;;;;;5.85;5.35;;;;;;;23.87;69.18;98966.94;5075027;28;20610;-88
2021/07/25 05:30:29;;;;;;;6.43;5.82;;;;;;;23.96;68.52;98960.34;5058471;28;20255;-88
2021/07/25 05:32:55;;;;;;;5.63;5.13;;;;;;;24.01;68.34;98951.16;5058468;28;20229;-87
2021/07/25 05:35:22;;;;;;;5.35;4.70;;;;;;;24.23;67.68;98974.81;5074791;28;20530;-88
2021/07/25 05:37:49;;;;;;;5.68;5.15;;;;;;;24.36;67.58;98968.31;5091758;28;20232;-88
2021/07/25 05:40:16;;;;;;;5.93;5.43;;;;;;;24.45;66.93;98949.97;5057447;28;20764;-87
2021/07/25 05:42:43;;;;;;;5.80;5.30;;;;;;;24.46;65.85;98948.81;5075067;28;20224;-88
2021/07/25 05:45:12;;;;;;;7.05;5.03;;;;;;;24.56;66.08;98962.97;5058074;28;20685;-88
2021/07/25 05:47:39;;;;;;;6.90;4.95;;;;;;;24.64;65.76;98947.63;5091246;28;20648;-88
2021/07/25 05:50:06;;;;;;;5.55;5.10;;;;;;;24.76;65.26;98955.16;5057684;28;20309;-89
2021/07/25 05:52:43;;;;;;;5.65;5.15;;;;;;;24.86;65.95;98965.75;5058459;28;20226;-88
2021/07/25 05:55:10;;;;;;;5.90;5.40;;;;;;;24.90;65.20;98950.28;5042073;28;20230;-89
2021/07/25 05:57:37;;;;;;;5.82;5.28;;;;;;;25.06;64.55;98962.28;5057761;28;20318;-85
2021/07/25 06:00:05;;;;;;;7.20;5.45;;;;;;;25.09;64.50;98964.38;5057614;28;20236;-89
2021/07/25 06:03:01;;;;;;;6.25;5.75;;;;;;;25.20;64.59;98964.78;5075029;28;20307;-88
2021/07/25 06:05:30;;;;;;;6.22;5.15;;;;;;;25.28;64.61;98956.53;5058350;28;20228;-88
2021/07/25 06:07:59;;;;;;;6.13;5.55;;;;;;;25.41;64.22;98962.88;5058241;28;20225;-89
2021/07/25 06:10:28;;;;;;;6.25;5.72;;;;;;;25.52;63.91;98963.31;5041592;28;20235;-89
2021/07/25 06:12:56;;;;;;;6.57;5.95;;;;;;;25.59;63.34;98961.66;5058224;28;20310;-88
2021/07/25 06:15:24;;;;;;;6.32;5.72;;;;;;;25.66;63.13;98969.34;5058170;28;20897;-86
2021/07/25 06:17:51;;;;;;;6.10;5.60;;;;;;;25.75;62.46;98970.91;5057779;28;20235;-89
2021/07/25 06:20:18;;;;;;;7.18;5.55;;;;;;;25.77;62.17;98965.88;5057690;28;20231;-88
2021/07/25 06:22:48;;;;;;;6.20;5.60;;;;;;;25.86;61.70;98965.78;5075337;28;20221;-88
2021/07/25 06:25:21;;;;;;;5.53;5.03;;;;;;;26.02;60.88;98980.50;5057878;28;20259;-85
2021/07/25 06:27:53;;;;;;;6.20;5.65;;;;;;;26.05;60.55;98959.81;5090306;28;20251;-88
2021/07/25 06:30:21;;;;;;;5.60;5.10;;;;;;;26.08;60.24;98961.88;5090267;28;20525;-88
2021/07/25 06:32:55;;;;;;;5.78;5.28;;;;;;;26.20;58.81;98957.22;5074034;28;20265;-89
2021/07/25 06:35:24;;;;;;;6.03;5.00;;;;;;;26.34;59.11;98967.13;5057409;28;20246;-86
2021/07/25 06:37:52;;;;;;;5.35;4.95;;;;;;;26.37;58.57;98963.69;5057607;28;20307;-87
2021/07/25 06:40:19;;;;;;;5.38;4.90;;;;;;;26.41;58.59;98959.94;5090198;28;20280;-85
2021/07/25 06:42:46;;;;;;;5.63;5.22;;;;;;;26.55;58.62;98965.91;5074114;28;20685;-88
2021/07/25 06:45:13;;;;;;;6.43;5.53;;;;;;;26.62;58.29;98960.69;5040753;28;20257;-86
2021/07/25 06:47:40;;;;;;;6.47;5.93;;;;;;;26.66;58.25;98967.09;5057779;28;20256;-88
2021/07/25 06:50:07;;;;;;;6.70;6.10;;;;;;;26.67;58.00;98963.19;5040137;28;20231;-86
2021/07/25 06:52:34;;;;;;;6.10;5.60;;;;;;;26.81;57.96;98957.38;5040934;28;20568;-87
2021/07/25 06:55:01;;;;;;;6.57;5.70;;;;;;;26.67;58.29;98954.97;5074029;28;20234;-88
2021/07/25 06:57:27;;;;;;;6.63;5.88;;;;;;;26.86;57.59;98965.44;5041196;28;20657;-89
2021/07/25 06:59:54;;;;;;;7.38;6.70;;;;;;;26.95;56.84;98968.06;5073915;28;20227;-87
2021/07/25 07:02:21;;;;;;;7.35;6.63;;;;;;;27.13;55.92;98963.94;5057015;28;20234;-87
2021/07/25 07:04:48;;;;;;;7.80;7.00;;;;;;;27.10;55.38;98968.19;5040622;28;20228;-86
2021/07/25 07:07:14;;;;;;;7.13;6.53;;;;;;;27.02;55.33;98955.34;5057384;28;20227;-86
2021/07/25 07:09:41;;;;;;;7.70;7.00;;;;;;;27.16;56.02;98961.28;5057222;28;20226;-87
2021/07/25 07:12:08;;;;;;;7.22;6.63;;;;;;;27.35;55.24;98963.44;5040526;28;20227;-86
2021/07/25 07:14:35;;;;;;;6.70;6.10;;;;;;;27.38;54.98;98948.22;5043917;28;20318;-87
2021/07/25 07:17:02;;;;;;;7.38;6.68;;;;;;;27.45;54.67;98942.91;5060797;28;20231;-86
2021/07/25 07:19:29;;;;;;;7.97;7.28;;;;;;;27.20;55.02;98949.63;5060307;28;20230;-87
2021/07/25 07:21:55;;;;;;;7.85;6.88;;;;;;;27.31;54.96;98959.78;5059312;28;20281;-86
2021/07/25 07:24:22;;;;;;;7.18;6.60;;;;;;;27.42;55.01;98949.91;5060717;28;20315;-87
2021/07/25 07:26:49;;;;;;;7.13;6.45;;;;;;;27.61;53.95;98948.53;5060810;28;20231;-86
2021/07/25 07:29:16;;;;;;;7.88;7.00;;;;;;;27.66;52.92;98943.59;5060425;28;20228;-86
2021/07/25 07:31:43;;;;;;;7.65;6.95;;;;;;;27.50;53.16;98939.94;5077029;28;20255;-85
2021/07/25 07:34:10;;;;;;;8.27;7.47;;;;;;;27.67;53.52;98938.88;5076763;28;20247;-85
2021/07/25 07:36:37;;;;;;;7.13;6.53;;;;;;;27.85;52.85;98953.97;5077863;28;20607;-85
2021/07/25 07:39:04;;;;;;;7.10;6.50;;;;;;;27.85;52.39;98941.00;5060233;28;20236;-87
2021/07/25 07:41:31;;;;;;;7.60;6.90;;;;;;;27.96;52.41;98946.78;5076912;28;20232;-87
2021/07/25 07:43:57;;;;;;;7.05;6.45;;;;;;;28.13;51.79;98951.22;5060540;28;20232;-86
2021/07/25 07:46:24;;;;;;;7.57;6.97;;;;;;;28.19;52.78;98950.59;5059701;28;20277;-86
2021/07/25 07:48:51;;;;;;;7.60;7.00;;;;;;;28.33;52.21;98958.44;5043544;28;20245;-86
2021/07/25 07:51:18;;;;;;;7.72;7.03;;;;;;;28.37;51.85;98945.56;5060206;28;20319;-86
2021/07/25 07:53:44;;;;;;;7.82;7.22;;;;;;;28.53;51.59;98953.84;5076788;28;20228;-86
2021/07/25 07:56:11;;;;;;;8.15;7.43;;;;;;;28.62;51.31;98948.97;5059212;28;20632;-85
2021/07/25 07:58:38;;;;;;;8.02;7.28;;;;;;;28.58;51.06;98940.63;5060077;28;20248;-86
2021/07/25 08:01:05;;;;;;;9.88;7.85;;;;;;;28.68;50.39;98961.34;5059982;28;20247;-86
2021/07/25 08:03:32;;;;;;;8.15;7.50;;;;;;;28.61;50.16;98950.94;5076586;28;20656;-87
2021/07/25 08:05:59;;;;;;;8.70;7.88;;;;;;;28.74;50.18;98954.44;5076629;28;20212;-86
2021/07/25 08:08:25;;;;;;;8.68;7.75;;;;;;;28.63;50.34;98936.81;5059570;28;20225;-86
2021/07/25 08:10:52;;;;;;;8.48;7.75;;;;;;;28.66;50.04;98947.09;5059609;28;20245;-86
2021/07/25 08:13:19;;;;;;;9.13;8.32;;;;;;;28.73;51.10;98937.09;5059901;28;20228;-89
2021/07/25 08:15:46;;;;;;;9.02;8.32;;;;;;;28.74;50.59;98941.44;5059452;28;20259;-86
2021/07/25 08:18:13;;;;;;;9.30;8.52;;;;;;;28.74;49.86;98938.69;5043261;28;20256;-88
2021/07/25 08:20:40;;;;;;;8.48;7.88;;;;;;;28.85;49.81;98939.75;5059663;28;20231;-85
2021/07/25 08:23:06;;;;;;;8.68;7.97;;;;;;;28.86;50.12;98946.88;5076087;28;20236;-85
2021/07/25 08:25:33;;;;;;;8.82;8.10;;;;;;;28.93;48.71;98939.94;5091274;28;20307;-85
2021/07/25 08:28:00;;;;;;;9.73;8.93;;;;;;;28.91;49.63;98937.53;5059094;28;20233;-86
2021/07/25 08:30:29;;;;;;;8.93;8.23;;;;;;;28.98;49.04;98928.59;5058958;28;20300;-86
2021/07/25 08:32:56;;;;;;;8.77;7.97;;;;;;;29.27;48.12;98942.72;5058956;28;20634;-86
2021/07/25 08:35:23;;;;;;;8.07;7.38;;;;;;;29.26;47.22;98943.06;5075348;28;20515;-85
2021/07/25 08:37:50;;;;;;;8.43;7.75;;;;;;;29.27;47.80;98941.91;5044974;28;20228;-86
2021/07/25 08:40:17;;;;;;;8.40;7.53;;;;;;;29.30;47.43;98942.00;5071671;28;20217;-86
2021/07/25 08:43:09;;;;;;;8.55;7.88;;;;;;;29.28;46.78;98940.75;5038882;28;20613;-85
2021/07/25 08:45:40;;;;;;;8.48;7.82;;;;;;;29.30;46.89;98932.97;5063245;28;20299;-85
2021/07/25 08:48:17;;;;;;;9.02;8.23;;;;;;;29.48;47.34;98953.47;5057645;28;20266;-85
2021/07/25 08:50:49;;;;;;;9.10;8.30;;;;;;;29.59;46.92;98939.88;5074828;28;20600;-84
2021/07/25 08:53:18;;;;;;;7.90;7.30;;;;;;;29.72;46.73;98942.13;5074700;28;20221;-86
2021/07/25 08:55:46;;;;;;;7.78;7.07;;;;;;;29.65;45.25;98944.75;5041677;28;20243;-85
2021/07/25 08:58:13;;;;;;;5.40;5.00;;;;;;;29.69;42.10;98937.34;5057557;28;20278;-85
2021/07/25 09:00:42;;;;;;;7.25;6.35;;;;;;;29.77;44.03;98932.00;5073448;28;20225;-84
2021/07/25 09:03:09;;;;;;;7.70;6.97;;;;;;;29.75;44.90;98940.63;5041287;28;20233;-85
2021/07/25 09:05:37;;;;;;;7.00;6.25;;;;;;;29.77;44.45;98952.09;5057731;28;20538;-85
2021/07/25 09:08:04;;;;;;;6.90;6.30;;;;;;;29.88;43.44;98936.59;5057266;28;20256;-85
2021/07/25 09:10:31;;;;;;;6.43;5.82;;;;;;;29.80;44.03;98947.81;5057545;28;20235;-85
2021/07/25 09:12:58;;;;;;;6.70;6.10;;;;;;;29.90;42.85;98952.78;5057861;28;20316;-86
2021/07/25 09:15:29;;;;;;;7.30;6.72;;;;;;;29.90;43.18;98945.31;5057517;28;20240;-85
2021/07/25 09:17:57;;;;;;;6.57;6.07;;;;;;;30.03;42.93;98937.66;5041436;28;20535;-85
2021/07/25 09:20:32;;;;;;;6.47;5.97;;;;;;;30.07;43.11;98939.31;5057182;28;20236;-86
2021/07/25 09:23:09;;;;;;;7.28;6.70;;;;;;;29.97;44.00;98939.91;5057586;28;20228;-85
2021/07/25 09:25:38;;;;;;;7.93;7.18;;;;;;;30.21;43.04;98935.22;5075312;28;20232;-85
2021/07/25 09:28:13;;;;;;;7.43;6.80;;;;;;;30.49;42.67;98941.31;5075066;28;20354;-86
2021/07/25 09:30:40;;;;;;;7.90;7.25;;;;;;;30.52;43.54;98935.84;5074116;28;20231;-86
2021/07/25 09:33:21;;;;;;;8.35;7.70;;;;;;;30.50;44.12;98931.84;5037483;28;20317;-85
2021/07/25 09:35:48;;;;;;;7.60;6.97;;;;;;;30.47;42.62;98927.84;5070592;28;20232;-86
2021/07/25 09:38:19;;;;;;;8.20;7.50;;;;;;;30.26;43.51;98935.75;5070100;28;20255;-85
2021/07/25 09:40:47;;;;;;;8.23;7.47;;;;;;;30.40;43.76;98935.19;5037829;28;20287;-85
2021/07/25 09:43:24;;;;;;;8.68;7.88;;;;;;;30.28;43.62;98930.66;5021105;28;20546;-84
2021/07/25 09:45:54;;;;;;;8.57;7.88;;;;;;;30.37;44.67;98930.41;5037402;28;20225;-86
2021/07/25 09:48:21;;;;;;;9.35;8.57;;;;;;;30.50;45.11;98929.09;5053206;28;20294;-85
2021/07/25 09:50:49;;;;;;;9.63;8.82;;;;;;;30.43;44.60;98923.41;5053741;28;20234;-85
2021/07/25 09:53:16;;;;;;;9.23;8.50;;;;;;;30.46;45.45;98914.41;5037644;28;20535;-86
2021/07/25 09:55:43;;;;;;;9.63;8.82;;;;;;;30.66;44.50;98915.13;5053750;28;20279;-85
2021/07/25 09:58:10;;;;;;;9.20;8.40;;;;;;;30.69;44.00;98915.22;5037077;28;20233;-86
2021/07/25 10:00:39;;;;;;;8.95;8.15;;;;;;;30.73;44.13;98916.06;5037050;28;20222;-86
2021/07/25 10:03:32;;;;;;;9.15;8.40;;;;;;;30.72;44.25;98908.13;5053950;28;20236;-86
2021/07/25 10:06:01;;;;;;;8.73;8.02;;;;;;;30.56;43.65;98903.53;5021857;28;20294;-86
2021/07/25 10:08:28;;;;;;;10.98;9.98;;;;;;;30.54;45.35;98894.81;5036821;28;20324;-85
2021/07/25 10:10:55;;;;;;;8.48;7.88;;;;;;;30.76;44.69;98900.69;5036920;28;20613;-86
2021/07/25 10:13:23;;;;;;;7.55;6.95;;;;;;;30.89;42.45;98899.34;5054074;28;20608;-86
2021/07/25 10:15:58;;;;;;;7.60;7.00;;;;;;;31.00;42.50;98900.28;5053470;28;20236;-85
2021/07/25 10:18:29;;;;;;;8.52;7.82;;;;;;;30.93;42.75;98912.03;5037485;28;20229;-86
2021/07/25 10:20:58;;;;;;;7.95;7.32;;;;;;;31.03;42.30;98907.84;5036656;28;20237;-86
2021/07/25 10:23:30;;;;;;;8.32;7.63;;;;;;;30.87;42.67;98888.63;5053472;28;20298;-86
2021/07/25 10:26:00;;;;;;;9.02;8.32;;;;;;;31.11;43.32;98906.81;5069763;28;20253;-86
2021/07/25 10:28:31;;;;;;;9.20;8.40;;;;;;;30.94;44.17;98902.56;5053113;28;20226;-86
2021/07/25 10:30:59;;;;;;;8.63;7.93;;;;;;;31.08;43.04;98890.16;5036586;28;20232;-86
2021/07/25 10:33:29;;;;;;;8.73;8.02;;;;;;;31.16;43.36;98891.84;5053025;28;20225;-85
2021/07/25 10:35:57;;;;;;;8.35;7.65;;;;;;;31.18;43.06;98892.25;5053413;28;20351;-85
2021/07/25 10:38:24;;;;;;;8.85;7.70;;;;;;;31.33;43.08;98894.84;5052747;28;20626;-86
2021/07/25 10:40:51;;;;;;;8.73;8.05;;;;;;;31.33;43.46;98900.41;5036918;28;20535;-85
2021/07/25 10:43:23;;;;;;;8.80;7.95;;;;;;;31.27;43.39;98888.03;5053307;28;20591;-85
2021/07/25 10:46:19;;;;;;;9.07;8.38;;;;;;;31.55;42.32;98898.69;5069792;28;20532;-85
2021/07/25 10:49:03;;;;;;;8.95;8.05;;;;;;;31.43;42.82;98891.44;5054816;28;20690;-85
2021/07/25 10:51:31;;;;;;;8.50;7.80;;;;;;;31.48;43.34;98885.56;5057044;28;20241;-85
2021/07/25 10:54:23;;;;;;;8.65;8.00;;;;;;;31.69;42.52;98881.47;5040708;28;20692;-85
2021/07/25 10:57:09;;;;;;;8.43;7.72;;;;;;;31.81;42.06;98873.75;5073328;28;20235;-85
2021/07/25 10:59:41;;;;;;;8.75;8.02;;;;;;;31.97;43.06;98881.00;5040918;28;20253;-85
2021/07/25 11:02:12;;;;;;;9.10;8.40;;;;;;;31.92;42.21;98868.28;5040014;28;20637;-86
2021/07/25 11:05:01;;;;;;;8.85;8.15;;;;;;;31.96;41.65;98873.91;5057090;28;20230;-85
2021/07/25 11:07:28;;;;;;;8.82;8.07;;;;;;;32.09;41.54;98867.69;5024173;28;20237;-86
2021/07/25 11:09:58;;;;;;;9.10;8.30;;;;;;;32.05;41.81;98877.97;5057982;28;20225;-86
2021/07/25 11:12:26;;;;;;;9.15;8.45;;;;;;;32.12;41.27;98869.72;5056519;28;20644;-85
2021/07/25 11:14:59;;;;;;;9.20;8.50;;;;;;;32.21;41.95;98877.72;5024040;28;20232;-85
2021/07/25 11:17:45;;;;;;;8.68;7.97;;;;;;;32.10;41.10;98872.06;5056584;28;20239;-85
2021/07/25 11:20:33;;;;;;;9.10;8.40;;;;;;;32.08;41.84;98866.09;5057468;28;20225;-86
2021/07/25 11:23:01;;;;;;;8.63;7.93;;;;;;;32.08;41.78;98874.41;5056383;28;20260;-85
2021/07/25 11:25:35;;;;;;;9.60;8.90;;;;;;;32.05;41.37;98866.06;5056891;28;20241;-85
2021/07/25 11:28:03;;;;;;;9.07;8.38;;;;;;;32.10;41.82;98849.91;5039582;28;20676;-85
2021/07/25 11:30:48;;;;;;;8.90;8.20;;;;;;;32.00;42.46;98852.56;5040257;28;20221;-86
2021/07/25 11:33:41;;;;;;;9.10;8.40;;;;;;;32.05;40.86;98852.22;5056488;28;20307;-85
2021/07/25 11:36:11;;;;;;;9.27;8.52;;;;;;;32.13;41.33;98859.44;5056347;28;20253;-85
2021/07/25 11:38:39;;;;;;;8.65;7.95;;;;;;;32.34;41.10;98854.09;5040014;28;20234;-85
2021/07/25 11:41:07;;;;;;;8.70;8.02;;;;;;;32.26;40.41;98839.38;5039805;28;20271;-85
2021/07/25 11:44:10;;;;;;;9.77;8.98;;;;;;;32.23;40.65;98850.44;5039328;28;20568;-85